Time;durP1;ratioP1;P1;durP2;ratioP2;P2;SDS_P1;SDS_P2;PMS_P1;PMS_P2;Temp;Humidity;BMP_temperature;BMP_pressure;BME280_temperature;BME280_humidity;BME280_pressure;Samples;Min_cycle;Max_cycle;Signal;HPM_P1;HPM_P2
2023/07/30 00:01:13;;;;;;;;;;;22.90;90.10;;;;;;5094648;28;19909;-64
2023/07/30 00:03:39;;;;;;;;;;;23.00;90.10;;;;;;5094542;28;19909;-63
2023/07/30 00:06:04;;;;;;;;;;;23.00;90.10;;;;;;5081352;28;19921;-71
2023/07/30 00:08:30;;;;;;;;;;;22.90;90.10;;;;;;5074296;28;20011;-68
2023/07/30 00:10:58;;;;;;;;;;;22.90;90.10;;;;;;5087587;28;19912;-67
2023/07/30 00:13:24;;;;;;;;;;;23.00;90.10;;;;;;5091951;28;19912;-66
2023/07/30 00:15:50;;;;;;;;;;;22.90;89.70;;;;;;5094232;28;20359;-67
2023/07/30 00:18:15;;;;;;;;;;;22.90;88.70;;;;;;5085652;28;20014;-65
2023/07/30 00:20:41;;;;;;;;;;;22.90;88.80;;;;;;5081779;28;20371;-64
2023/07/30 00:23:06;;;;;;;;;;;22.90;89.10;;;;;;5083520;28;19974;-64
2023/07/30 00:25:32;;;;;;;;;;;22.90;89.50;;;;;;5074142;28;19924;-64
2023/07/30 00:27:57;;;;;;;;;;;22.90;89.70;;;;;;5090419;28;19919;-63
2023/07/30 00:30:23;;;;;;;;;;;22.90;89.90;;;;;;5092170;28;20550;-63
2023/07/30 00:32:48;;;;;;;;;;;22.90;89.90;;;;;;5091439;28;19908;-64
2023/07/30 00:35:14;;;;;;;;;;;22.90;90.00;;;;;;5092031;28;19908;-64
2023/07/30 00:37:39;;;;;;;;;;;22.90;90.00;;;;;;5092246;28;19915;-63
2023/07/30 00:40:05;;;;;;;;;;;22.90;90.00;;;;;;5092134;28;19909;-62
2023/07/30 00:42:31;;;;;;;;;;;22.90;90.00;;;;;;5092195;28;20400;-65
2023/07/30 00:44:56;;;;;;;;;;;22.90;90.00;;;;;;5094174;28;19920;-64
2023/07/30 00:47:22;;;;;;;;;;;22.90;90.00;;;;;;5093921;28;19924;-64
2023/07/30 00:49:48;;;;;;;;;;;22.90;90.00;;;;;;5094375;28;19954;-66
2023/07/30 00:52:14;;;;;;;;;;;22.80;90.00;;;;;;5093828;28;20369;-66
2023/07/30 00:54:40;;;;;;;;;;;22.90;90.00;;;;;;5094063;28;19908;-66
2023/07/30 00:57:06;;;;;;;;;;;22.90;90.00;;;;;;5094050;28;19962;-66
2023/07/30 00:59:32;;;;;;;;;;;22.80;90.00;;;;;;5093726;28;19908;-65
2023/07/30 01:01:58;;;;;;;;;;;22.90;90.00;;;;;;5093748;28;20263;-65
2023/07/30 01:04:24;;;;;;;;;;;22.80;90.00;;;;;;5093886;28;19916;-65
2023/07/30 01:06:49;;;;;;;;;;;22.90;90.00;;;;;;5094020;28;19943;-66
2023/07/30 01:09:15;;;;;;;;;;;22.90;90.00;;;;;;5094042;28;19995;-66
2023/07/30 01:11:41;;;;;;;;;;;22.80;90.00;;;;;;5092786;28;20002;-65
2023/07/30 01:14:08;;;;;;;;;;;22.80;90.00;;;;;;5093755;28;19908;-66
2023/07/30 01:16:33;;;;;;;;;;;22.80;90.00;;;;;;5093794;28;19914;-66
2023/07/30 01:19:01;;;;;;;;;;;22.80;90.00;;;;;;5094012;28;19908;-65
2023/07/30 01:21:26;;;;;;;;;;;22.80;90.00;;;;;;5094228;28;19914;-66
2023/07/30 01:23:51;;;;;;;;;;;22.80;90.00;;;;;;5094023;28;19947;-66
2023/07/30 01:26:24;;;;;;;;;;;22.80;90.00;;;;;;5093792;28;19942;-66
2023/07/30 01:28:51;;;;;;;;;;;22.80;90.00;;;;;;5094203;28;19908;-66
2023/07/30 01:31:17;;;;;;;;;;;22.80;90.00;;;;;;5092596;28;20347;-64
2023/07/30 01:33:46;;;;;;;;;;;22.80;90.00;;;;;;5093554;28;19934;-64
2023/07/30 01:36:14;;;;;;;;;;;22.80;90.00;;;;;;5093842;28;19908;-64
2023/07/30 01:38:40;;;;;;;;;;;22.80;90.00;;;;;;5093551;28;19908;-65
2023/07/30 01:41:06;;;;;;;;;;;22.80;90.00;;;;;;5093512;28;19908;-64
2023/07/30 01:43:31;;;;;;;;;;;22.80;90.00;;;;;;5093488;28;19998;-64
2023/07/30 01:45:57;;;;;;;;;;;22.80;90.00;;;;;;5097180;28;19927;-64
2023/07/30 01:48:22;;;;;;;;;;;22.80;90.00;;;;;;5097546;28;20354;-65
2023/07/30 01:50:48;;;;;;;;;;;22.80;90.00;;;;;;5097489;28;19915;-65
2023/07/30 01:53:14;;;;;;;;;;;22.80;90.00;;;;;;5097514;28;19947;-64
2023/07/30 01:55:43;;;;;;;;;;;22.80;90.00;;;;;;5097150;28;19915;-64
2023/07/30 01:58:09;;;;;;;;;;;22.80;90.00;;;;;;5097051;28;19948;-64
2023/07/30 02:00:35;;;;;;;;;;;22.80;90.00;;;;;;5097383;28;20001;-65
2023/07/30 02:03:00;;;;;;;;;;;22.80;90.00;;;;;;5097011;28;19908;-64
2023/07/30 02:05:25;;;;;;;;;;;22.80;90.00;;;;;;5097206;28;19954;-64
2023/07/30 02:07:51;;;;;;;;;;;22.80;90.00;;;;;;5096857;28;19951;-65
2023/07/30 02:10:16;;;;;;;;;;;22.80;90.00;;;;;;5097185;28;20314;-64
2023/07/30 02:12:42;;;;;;;;;;;22.80;90.00;;;;;;5097017;28;19943;-64
2023/07/30 02:15:08;;;;;;;;;;;22.80;90.00;;;;;;5097080;28;19912;-64
2023/07/30 02:17:33;;;;;;;;;;;22.80;90.00;;;;;;5097321;28;19915;-64
2023/07/30 02:19:59;;;;;;;;;;;22.80;90.00;;;;;;5096715;28;19998;-64
2023/07/30 02:22:24;;;;;;;;;;;22.80;90.00;;;;;;5096922;28;20354;-63
2023/07/30 02:24:50;;;;;;;;;;;22.80;90.00;;;;;;5096878;28;19913;-65
2023/07/30 02:27:15;;;;;;;;;;;22.80;90.00;;;;;;5096730;28;20031;-64
2023/07/30 02:29:40;;;;;;;;;;;22.80;90.00;;;;;;5096829;28;19908;-64
2023/07/30 02:32:06;;;;;;;;;;;22.80;90.20;;;;;;5096755;28;19947;-64
2023/07/30 02:34:32;;;;;;;;;;;22.80;90.00;;;;;;5096707;28;19912;-64
2023/07/30 02:36:57;;;;;;;;;;;22.80;90.00;;;;;;5096656;28;19934;-64
2023/07/30 02:39:22;;;;;;;;;;;22.80;90.00;;;;;;5096349;28;20264;-65
2023/07/30 02:41:48;;;;;;;;;;;22.80;90.00;;;;;;5096318;28;19916;-65
2023/07/30 02:44:13;;;;;;;;;;;22.80;90.00;;;;;;5096557;28;19966;-64
2023/07/30 02:46:39;;;;;;;;;;;22.80;90.00;;;;;;5096224;28;20367;-64
2023/07/30 02:49:04;;;;;;;;;;;22.80;90.00;;;;;;5096149;28;19908;-65
2023/07/30 02:51:30;;;;;;;;;;;22.80;90.00;;;;;;5096680;28;19958;-64
2023/07/30 02:53:59;;;;;;;;;;;22.70;90.00;;;;;;5096318;28;19908;-64
2023/07/30 02:56:24;;;;;;;;;;;22.80;90.00;;;;;;5095859;28;19908;-63
2023/07/30 02:58:50;;;;;;;;;;;22.70;90.00;;;;;;5096258;28;19916;-65
2023/07/30 03:01:16;;;;;;;;;;;22.70;90.00;;;;;;5094965;28;19908;-65
2023/07/30 03:03:41;;;;;;;;;;;22.70;90.00;;;;;;5095864;28;19912;-65
2023/07/30 03:06:07;;;;;;;;;;;22.70;90.00;;;;;;5096042;28;19916;-64
2023/07/30 03:08:32;;;;;;;;;;;22.70;90.00;;;;;;5096083;28;19916;-65
2023/07/30 03:10:58;;;;;;;;;;;22.70;90.00;;;;;;5095732;28;19915;-64
2023/07/30 03:13:24;;;;;;;;;;;22.70;90.00;;;;;;5095684;28;19912;-65
2023/07/30 03:15:49;;;;;;;;;;;22.70;90.00;;;;;;5095686;28;20373;-65
2023/07/30 03:18:15;;;;;;;;;;;22.70;90.00;;;;;;5095874;28;19970;-65
2023/07/30 03:20:40;;;;;;;;;;;22.70;90.00;;;;;;5096164;28;19908;-65
2023/07/30 03:23:06;;;;;;;;;;;22.70;90.00;;;;;;5095725;28;20270;-64
2023/07/30 03:25:31;;;;;;;;;;;22.70;90.00;;;;;;5095698;28;19908;-65
2023/07/30 03:27:57;;;;;;;;;;;22.70;90.00;;;;;;5095557;28;19958;-64
2023/07/30 03:30:22;;;;;;;;;;;22.70;90.00;;;;;;5095676;28;19919;-65
2023/07/30 03:32:48;;;;;;;;;;;22.70;90.00;;;;;;5095234;28;20019;-65
2023/07/30 03:35:13;;;;;;;;;;;22.70;90.00;;;;;;5095805;28;19954;-64
2023/07/30 03:37:39;;;;;;;;;;;22.70;90.00;;;;;;5095605;28;19923;-65
2023/07/30 03:40:04;;;;;;;;;;;22.70;90.00;;;;;;5095427;28;20324;-65
2023/07/30 03:42:30;;;;;;;;;;;22.70;90.00;;;;;;5095374;28;19908;-64
2023/07/30 03:44:55;;;;;;;;;;;22.70;90.00;;;;;;5095283;28;19927;-64
2023/07/30 03:47:21;;;;;;;;;;;22.70;90.00;;;;;;5094914;28;19916;-65
2023/07/30 03:49:46;;;;;;;;;;;22.70;90.00;;;;;;5095188;28;19999;-65
2023/07/30 03:52:12;;;;;;;;;;;22.70;90.00;;;;;;5095245;28;19908;-65
2023/07/30 03:54:37;;;;;;;;;;;22.70;90.00;;;;;;5095114;28;19982;-64
2023/07/30 03:57:03;;;;;;;;;;;22.70;90.00;;;;;;5094901;28;19919;-64
2023/07/30 03:59:28;;;;;;;;;;;22.70;90.00;;;;;;5094772;28;19908;-64
2023/07/30 04:01:54;;;;;;;;;;;22.70;90.00;;;;;;5095030;28;19915;-65
2023/07/30 04:04:19;;;;;;;;;;;22.70;90.00;;;;;;5094921;28;19919;-64
2023/07/30 04:06:45;;;;;;;;;;;22.70;90.00;;;;;;5094048;28;19916;-65
2023/07/30 04:09:10;;;;;;;;;;;22.70;90.00;;;;;;5094786;28;19962;-65
2023/07/30 04:11:36;;;;;;;;;;;22.70;90.10;;;;;;5094852;28;19908;-65
2023/07/30 04:14:01;;;;;;;;;;;22.70;90.10;;;;;;5094693;28;20334;-64
2023/07/30 04:16:27;;;;;;;;;;;22.70;90.10;;;;;;5094731;28;19908;-63
2023/07/30 04:18:52;;;;;;;;;;;22.70;90.00;;;;;;5094610;28;19912;-65
2023/07/30 04:21:18;;;;;;;;;;;22.70;90.10;;;;;;5094419;28;20321;-65
2023/07/30 04:23:43;;;;;;;;;;;22.70;90.10;;;;;;5094401;28;19908;-65
2023/07/30 04:26:09;;;;;;;;;;;22.70;90.10;;;;;;5094437;28;19916;-65
2023/07/30 04:28:34;;;;;;;;;;;22.60;90.10;;;;;;5094572;28;20223;-64
2023/07/30 04:31:00;;;;;;;;;;;22.60;90.10;;;;;;5094290;28;20006;-64
2023/07/30 04:33:26;;;;;;;;;;;22.60;90.10;;;;;;5094437;28;20355;-65
2023/07/30 04:35:52;;;;;;;;;;;22.60;90.10;;;;;;5094110;28;19908;-64
2023/07/30 04:38:17;;;;;;;;;;;22.60;90.10;;;;;;5094403;28;19961;-65
2023/07/30 04:40:43;;;;;;;;;;;22.60;90.10;;;;;;5094024;28;20321;-65
2023/07/30 04:43:08;;;;;;;;;;;22.60;90.10;;;;;;5092814;28;19912;-65
2023/07/30 04:45:33;;;;;;;;;;;22.60;90.10;;;;;;5094320;28;19951;-64
2023/07/30 04:47:59;;;;;;;;;;;22.60;90.10;;;;;;5094304;28;19912;-64
2023/07/30 04:50:24;;;;;;;;;;;22.60;90.10;;;;;;5093980;28;19962;-65
2023/07/30 04:52:50;;;;;;;;;;;22.60;90.10;;;;;;5093713;28;19999;-64
2023/07/30 04:55:15;;;;;;;;;;;22.60;90.10;;;;;;5093869;28;19908;-64
2023/07/30 04:57:41;;;;;;;;;;;22.60;90.10;;;;;;5094240;28;19974;-65
2023/07/30 05:00:07;;;;;;;;;;;22.60;90.10;;;;;;5093929;28;19915;-65
2023/07/30 05:02:32;;;;;;;;;;;22.60;90.10;;;;;;5094144;28;20418;-64
2023/07/30 05:04:58;;;;;;;;;;;22.60;90.10;;;;;;5094323;28;19959;-64
2023/07/30 05:07:23;;;;;;;;;;;22.60;90.20;;;;;;5092757;28;20270;-65
2023/07/30 05:09:49;;;;;;;;;;;22.60;90.20;;;;;;5093788;28;20405;-65
2023/07/30 05:12:14;;;;;;;;;;;22.60;90.10;;;;;;5093747;28;19948;-65
2023/07/30 05:14:40;;;;;;;;;;;22.60;90.20;;;;;;5092346;28;19908;-65
2023/07/30 05:17:05;;;;;;;;;;;22.60;90.20;;;;;;5093929;28;19931;-65
2023/07/30 05:19:32;;;;;;;;;;;22.60;90.20;;;;;;5097270;28;19916;-65
2023/07/30 05:21:59;;;;;;;;;;;22.60;90.20;;;;;;5097728;28;20003;-65
2023/07/30 05:24:24;;;;;;;;;;;22.60;90.20;;;;;;5097741;28;20390;-65
2023/07/30 05:26:50;;;;;;;;;;;22.60;90.20;;;;;;5097666;28;19956;-65
2023/07/30 05:29:15;;;;;;;;;;;22.60;90.20;;;;;;5097885;28;19912;-65
2023/07/30 05:31:41;;;;;;;;;;;22.60;90.20;;;;;;5097609;28;19911;-65
2023/07/30 05:34:06;;;;;;;;;;;22.60;90.40;;;;;;5097537;28;20006;-65
2023/07/30 05:36:32;;;;;;;;;;;22.60;90.20;;;;;;5096446;28;19958;-65
2023/07/30 05:38:57;;;;;;;;;;;22.60;90.20;;;;;;5097512;28;19942;-65
2023/07/30 05:41:23;;;;;;;;;;;22.60;90.20;;;;;;5097674;28;19911;-65
2023/07/30 05:43:48;;;;;;;;;;;22.60;90.20;;;;;;5097648;28;19994;-65
2023/07/30 05:46:14;;;;;;;;;;;22.60;90.20;;;;;;5097642;28;19973;-65
2023/07/30 05:48:40;;;;;;;;;;;22.60;90.10;;;;;;5097537;28;20010;-65
2023/07/30 05:51:05;;;;;;;;;;;22.60;90.10;;;;;;5097566;28;19908;-65
2023/07/30 05:53:31;;;;;;;;;;;22.60;90.10;;;;;;5097368;28;19908;-64
2023/07/30 05:55:56;;;;;;;;;;;22.60;90.10;;;;;;5097134;28;19908;-65
2023/07/30 05:58:22;;;;;;;;;;;22.60;90.10;;;;;;5097073;28;19908;-65
2023/07/30 06:00:47;;;;;;;;;;;22.60;90.10;;;;;;5096995;28;19908;-65
2023/07/30 06:03:13;;;;;;;;;;;22.60;90.10;;;;;;5097124;28;20290;-65
2023/07/30 06:05:39;;;;;;;;;;;22.60;90.10;;;;;;5096826;28;19922;-64
2023/07/30 06:08:04;;;;;;;;;;;22.60;90.10;;;;;;5096751;28;19912;-65
2023/07/30 06:10:30;;;;;;;;;;;22.60;90.10;;;;;;5097145;28;19908;-64
2023/07/30 06:12:55;;;;;;;;;;;22.60;90.10;;;;;;5097268;28;19908;-65
2023/07/30 06:15:21;;;;;;;;;;;22.60;90.10;;;;;;5095991;28;19908;-65
2023/07/30 06:17:46;;;;;;;;;;;22.60;90.20;;;;;;5097236;28;19955;-64
2023/07/30 06:20:12;;;;;;;;;;;22.60;90.10;;;;;;5096487;28;19914;-65
2023/07/30 06:22:37;;;;;;;;;;;22.60;90.10;;;;;;5096623;28;19908;-66
2023/07/30 06:25:03;;;;;;;;;;;22.60;90.20;;;;;;5096535;28;20082;-64
2023/07/30 06:27:28;;;;;;;;;;;22.60;90.20;;;;;;5096749;28;19916;-65
2023/07/30 06:29:53;;;;;;;;;;;22.60;90.20;;;;;;5077688;28;19913;-65
2023/07/30 06:32:19;;;;;;;;;;;22.60;90.20;;;;;;5076034;28;19928;-65
2023/07/30 06:34:44;;;;;;;;;;;22.60;90.20;;;;;;5076319;28;19908;-65
2023/07/30 06:37:10;;;;;;;;;;;22.60;90.20;;;;;;5076342;28;19909;-65
2023/07/30 06:39:35;;;;;;;;;;;22.60;90.20;;;;;;5076328;28;19909;-65
2023/07/30 06:42:01;;;;;;;;;;;22.60;90.20;;;;;;5076020;28;20414;-64
2023/07/30 06:44:26;;;;;;;;;;;22.60;90.20;;;;;;5075727;28;19920;-65
2023/07/30 06:46:52;;;;;;;;;;;22.60;90.20;;;;;;5077960;28;20393;-68
2023/07/30 06:49:17;;;;;;;;;;;22.50;90.20;;;;;;5093967;28;20393;-72
2023/07/30 06:51:43;;;;;;;;;;;22.60;90.20;;;;;;5088672;28;19952;-72
2023/07/30 06:54:08;;;;;;;;;;;22.60;89.90;;;;;;5090886;28;19931;-72
2023/07/30 06:56:34;;;;;;;;;;;22.60;89.60;;;;;;5084791;28;19986;-71
2023/07/30 06:58:59;;;;;;;;;;;22.50;89.30;;;;;;5078190;28;19970;-71
2023/07/30 07:01:25;;;;;;;;;;;22.50;89.20;;;;;;5091278;28;19908;-67
2023/07/30 07:03:50;;;;;;;;;;;22.50;89.20;;;;;;5091625;28;19914;-68
2023/07/30 07:06:15;;;;;;;;;;;22.50;89.50;;;;;;5093596;28;19916;-68
2023/07/30 07:08:41;;;;;;;;;;;22.50;89.60;;;;;;5094949;28;20267;-71
2023/07/30 07:11:07;;;;;;;;;;;22.50;89.70;;;;;;5095669;28;19908;-68
2023/07/30 07:13:33;;;;;;;;;;;22.50;90.10;;;;;;5075439;28;19912;-68
2023/07/30 07:15:58;;;;;;;;;;;22.50;89.80;;;;;;5075364;28;20359;-69
2023/07/30 07:18:24;;;;;;;;;;;22.50;89.90;;;;;;5075492;28;19954;-69
2023/07/30 07:20:49;;;;;;;;;;;22.50;90.00;;;;;;5075384;28;20328;-69
2023/07/30 07:23:15;;;;;;;;;;;22.50;90.00;;;;;;5075431;28;20280;-68
2023/07/30 07:25:40;;;;;;;;;;;22.50;90.00;;;;;;5075309;28;19954;-69
2023/07/30 07:28:06;;;;;;;;;;;22.50;90.00;;;;;;5074956;28;20466;-68
2023/07/30 07:30:33;;;;;;;;;;;22.50;90.00;;;;;;5075091;28;19909;-68
2023/07/30 07:32:59;;;;;;;;;;;22.50;90.00;;;;;;5074964;28;20314;-68
2023/07/30 07:35:24;;;;;;;;;;;22.50;90.00;;;;;;5074941;28;19909;-69
2023/07/30 07:37:50;;;;;;;;;;;22.50;90.00;;;;;;5075116;28;19991;-68
2023/07/30 07:40:16;;;;;;;;;;;22.50;90.00;;;;;;5074646;28;19912;-69
2023/07/30 07:42:41;;;;;;;;;;;22.50;90.00;;;;;;5074501;28;19915;-68
2023/07/30 07:45:07;;;;;;;;;;;22.50;89.90;;;;;;5074834;28;19921;-69
2023/07/30 07:47:32;;;;;;;;;;;22.50;89.90;;;;;;5074811;28;19959;-68
2023/07/30 07:49:58;;;;;;;;;;;22.50;89.90;;;;;;5074360;28;19915;-68
2023/07/30 07:52:23;;;;;;;;;;;22.50;89.90;;;;;;5074982;28;19909;-69
2023/07/30 07:54:49;;;;;;;;;;;22.50;89.90;;;;;;5074259;28;19908;-69
2023/07/30 07:57:14;;;;;;;;;;;22.50;89.90;;;;;;5074378;28;20007;-69
2023/07/30 07:59:41;;;;;;;;;;;22.50;89.90;;;;;;5074639;28;19909;-69
2023/07/30 08:02:07;;;;;;;;;;;22.50;89.90;;;;;;5074475;28;19923;-68
2023/07/30 08:04:32;;;;;;;;;;;22.50;89.90;;;;;;5074537;28;19912;-69
2023/07/30 08:06:59;;;;;;;;;;;22.50;89.80;;;;;;5074353;28;19916;-69
2023/07/30 08:09:25;;;;;;;;;;;22.50;89.80;;;;;;5074377;28;19915;-69
2023/07/30 08:11:50;;;;;;;;;;;22.50;89.80;;;;;;5074719;28;19908;-69
2023/07/30 08:14:16;;;;;;;;;;;22.50;89.80;;;;;;5074082;28;19915;-69
2023/07/30 08:16:41;;;;;;;;;;;22.50;89.80;;;;;;5073918;28;19954;-69
2023/07/30 08:19:07;;;;;;;;;;;22.50;89.80;;;;;;5074032;28;19959;-69
2023/07/30 08:21:32;;;;;;;;;;;22.50;89.80;;;;;;5073954;28;20008;-69
2023/07/30 08:23:58;;;;;;;;;;;22.50;89.80;;;;;;5071736;28;19962;-68
2023/07/30 08:26:23;;;;;;;;;;;22.50;89.80;;;;;;5066109;28;19921;-69
2023/07/30 08:28:49;;;;;;;;;;;22.50;89.80;;;;;;5081087;28;20293;-69
2023/07/30 08:31:14;;;;;;;;;;;22.50;89.70;;;;;;5074106;28;19970;-68
2023/07/30 08:33:40;;;;;;;;;;;22.50;89.70;;;;;;5077688;28;19912;-68
2023/07/30 08:36:05;;;;;;;;;;;22.50;89.70;;;;;;5087557;28;19912;-68
2023/07/30 08:38:31;;;;;;;;;;;22.50;89.60;;;;;;5094365;28;19908;-70
2023/07/30 08:40:56;;;;;;;;;;;22.50;89.60;;;;;;5094219;28;19915;-69
2023/07/30 08:43:22;;;;;;;;;;;22.50;89.60;;;;;;5071134;28;20351;-69
2023/07/30 08:45:47;;;;;;;;;;;22.50;89.60;;;;;;5080811;28;20271;-68
2023/07/30 08:48:13;;;;;;;;;;;22.50;89.60;;;;;;5094134;28;19916;-68
2023/07/30 08:50:38;;;;;;;;;;;22.50;89.60;;;;;;5086471;28;19958;-68
2023/07/30 08:53:05;;;;;;;;;;;22.50;89.60;;;;;;5075097;28;19916;-68
2023/07/30 08:55:33;;;;;;;;;;;22.50;89.60;;;;;;5071780;28;19912;-69
2023/07/30 08:57:59;;;;;;;;;;;22.50;89.60;;;;;;5072776;28;19991;-68
2023/07/30 09:00:25;;;;;;;;;;;22.50;89.60;;;;;;5073518;28;20320;-69
2023/07/30 09:02:52;;;;;;;;;;;22.50;89.60;;;;;;5086227;28;19912;-68
2023/07/30 09:05:19;;;;;;;;;;;22.50;89.60;;;;;;5081462;28;19940;-68
2023/07/30 09:07:45;;;;;;;;;;;22.50;89.60;;;;;;5072558;28;19942;-69
2023/07/30 09:10:10;;;;;;;;;;;22.50;89.50;;;;;;5073984;28;19912;-69
2023/07/30 09:12:36;;;;;;;;;;;22.50;89.50;;;;;;5073946;28;19908;-67
2023/07/30 09:15:03;;;;;;;;;;;22.50;89.50;;;;;;5072201;28;20049;-68
2023/07/30 09:17:28;;;;;;;;;;;22.50;89.50;;;;;;5072108;28;19913;-69
2023/07/30 09:19:54;;;;;;;;;;;22.50;89.50;;;;;;5073626;28;19908;-69
2023/07/30 09:22:24;;;;;;;;;;;22.50;89.50;;;;;;5080639;28;20044;-69
2023/07/30 09:24:49;;;;;;;;;;;22.50;89.50;;;;;;5077168;28;20003;-69
2023/07/30 09:27:22;;;;;;;;;;;22.50;89.50;;;;;;5076227;28;20011;-69
2023/07/30 09:29:52;;;;;;;;;;;22.50;89.50;;;;;;5080389;28;19928;-71
2023/07/30 09:32:17;;;;;;;;;;;22.50;89.40;;;;;;5072408;28;19913;-71
2023/07/30 09:34:44;;;;;;;;;;;22.50;89.40;;;;;;5073059;28;19916;-70
2023/07/30 09:37:10;;;;;;;;;;;22.50;89.40;;;;;;5073372;28;19916;-70
2023/07/30 09:39:37;;;;;;;;;;;22.50;89.40;;;;;;5073085;28;19909;-70
2023/07/30 09:42:02;;;;;;;;;;;22.50;89.40;;;;;;5073138;28;20347;-68
2023/07/30 09:44:28;;;;;;;;;;;22.40;89.30;;;;;;5077986;28;19958;-66
2023/07/30 09:46:53;;;;;;;;;;;22.50;89.40;;;;;;5075350;28;19923;-68
2023/07/30 09:49:19;;;;;;;;;;;22.50;89.40;;;;;;5078414;28;19912;-63
2023/07/30 09:51:44;;;;;;;;;;;22.50;89.40;;;;;;5087382;28;20214;-67
2023/07/30 09:54:13;;;;;;;;;;;22.50;89.40;;;;;;5074983;28;19917;-67
2023/07/30 09:56:40;;;;;;;;;;;22.50;89.40;;;;;;5071706;28;19909;-68
2023/07/30 09:59:06;;;;;;;;;;;22.50;89.40;;;;;;5070713;28;19965;-69
2023/07/30 10:01:34;;;;;;;;;;;22.50;89.70;;;;;;5072730;28;20294;-63
2023/07/30 10:04:04;;;;;;;;;;;22.50;89.60;;;;;;5072722;28;20232;-64
2023/07/30 10:06:31;;;;;;;;;;;22.50;89.80;;;;;;5075161;28;19919;-66
2023/07/30 10:08:58;;;;;;;;;;;22.50;89.90;;;;;;5078091;28;19966;-69
2023/07/30 10:11:24;;;;;;;;;;;22.50;90.00;;;;;;5096810;28;19912;-71
2023/07/30 10:13:50;;;;;;;;;;;22.50;90.00;;;;;;5082356;28;20047;-67
2023/07/30 10:16:15;;;;;;;;;;;22.50;90.10;;;;;;5068354;28;19912;-68
2023/07/30 10:18:42;;;;;;;;;;;22.50;90.10;;;;;;5079495;28;20334;-67
2023/07/30 10:21:11;;;;;;;;;;;22.50;90.10;;;;;;5083560;28;19934;-68
2023/07/30 10:23:46;;;;;;;;;;;22.50;90.20;;;;;;5095257;28;19934;-69
2023/07/30 10:26:12;;;;;;;;;;;22.50;90.10;;;;;;5086663;28;19916;-67
2023/07/30 10:28:39;;;;;;;;;;;22.50;90.20;;;;;;5088553;28;19924;-70
2023/07/30 10:31:08;;;;;;;;;;;22.50;90.20;;;;;;5094151;28;19915;-72
2023/07/30 10:33:53;;;;;;;;;;;22.50;90.20;;;;;;5096419;28;19955;-75
2023/07/30 10:36:24;;;;;;;;;;;22.50;90.20;;;;;;5096430;28;19978;-68
2023/07/30 10:38:50;;;;;;;;;;;22.50;90.20;;;;;;5096108;28;20266;-70
2023/07/30 10:41:19;;;;;;;;;;;22.50;90.20;;;;;;5096261;28;19994;-67
2023/07/30 10:43:48;;;;;;;;;;;22.50;90.20;;;;;;5055653;28;19909;-74
2023/07/30 10:46:14;;;;;;;;;;;22.50;90.30;;;;;;5056019;28;19920;-75
2023/07/30 10:48:41;;;;;;;;;;;22.50;90.30;;;;;;5055676;28;19915;-75
2023/07/30 10:51:08;;;;;;;;;;;22.60;90.30;;;;;;5069380;28;19912;-69
2023/07/30 10:53:36;;;;;;;;;;;22.60;90.30;;;;;;5075883;28;20386;-68
2023/07/30 10:56:03;;;;;;;;;;;22.60;90.30;;;;;;5075814;28;19995;-64
2023/07/30 10:58:32;;;;;;;;;;;22.60;90.30;;;;;;5076635;28;20019;-69
2023/07/30 11:00:57;;;;;;;;;;;22.60;90.60;;;;;;5075777;28;19913;-69
2023/07/30 11:03:26;;;;;;;;;;;22.60;90.30;;;;;;5085066;28;20076;-70
2023/07/30 11:05:52;;;;;;;;;;;22.60;90.30;;;;;;5095775;28;19908;-66
2023/07/30 11:08:17;;;;;;;;;;;22.60;90.40;;;;;;5095331;28;20427;-68
2023/07/30 11:10:44;;;;;;;;;;;22.60;90.40;;;;;;5087369;28;19917;-73
2023/07/30 11:13:09;;;;;;;;;;;22.60;90.40;;;;;;5088142;28;19912;-73
2023/07/30 11:15:40;;;;;;;;;;;22.60;90.40;;;;;;5095768;28;20371;-72
2023/07/30 11:18:06;;;;;;;;;;;22.60;90.40;;;;;;5094579;28;19908;-72
2023/07/30 11:20:31;;;;;;;;;;;22.60;90.40;;;;;;5090830;28;19977;-70
2023/07/30 11:22:57;;;;;;;;;;;22.60;90.40;;;;;;5085060;28;19912;-71
2023/07/30 11:25:22;;;;;;;;;;;22.60;90.40;;;;;;5075046;28;20003;-71
2023/07/30 11:27:48;;;;;;;;;;;22.60;90.40;;;;;;5074973;28;19962;-72
2023/07/30 11:30:14;;;;;;;;;;;22.60;90.40;;;;;;5073920;28;19920;-70
2023/07/30 11:32:40;;;;;;;;;;;22.60;90.40;;;;;;5078115;28;19922;-70
2023/07/30 11:35:06;;;;;;;;;;;22.60;90.40;;;;;;5085340;28;19908;-68
2023/07/30 11:37:32;;;;;;;;;;;22.60;90.30;;;;;;5080437;28;19915;-72
2023/07/30 11:39:57;;;;;;;;;;;22.60;90.30;;;;;;5079840;28;19967;-74
2023/07/30 11:42:23;;;;;;;;;;;22.60;90.30;;;;;;5073603;28;19912;-72
2023/07/30 11:44:49;;;;;;;;;;;22.60;90.30;;;;;;5074309;28;20367;-71
2023/07/30 11:47:20;;;;;;;;;;;22.60;90.30;;;;;;5072338;28;19924;-67
2023/07/30 11:49:54;;;;;;;;;;;22.60;90.30;;;;;;5088650;28;19952;-73
2023/07/30 11:52:20;;;;;;;;;;;22.60;90.30;;;;;;5086827;28;20006;-69
2023/07/30 11:54:45;;;;;;;;;;;22.60;90.30;;;;;;5079830;28;19999;-66
2023/07/30 11:57:11;;;;;;;;;;;22.60;90.30;;;;;;5074133;28;19909;-65
2023/07/30 11:59:36;;;;;;;;;;;22.60;90.30;;;;;;5074429;28;19908;-70
2023/07/30 12:02:02;;;;;;;;;;;22.60;90.30;;;;;;5077410;28;20781;-73
2023/07/30 12:04:43;;;;;;;;;;;22.60;90.30;;;;;;5080315;28;19920;-75
2023/07/30 12:07:09;;;;;;;;;;;22.60;89.40;;;;;;5073800;28;19927;-76
2023/07/30 12:09:35;;;;;;;;;;;22.60;88.50;;;;;;5092124;28;19999;-73
2023/07/30 12:12:01;;;;;;;;;;;22.60;88.40;;;;;;5072431;28;20334;-75
2023/07/30 12:14:30;;;;;;;;;;;22.60;88.70;;;;;;5073449;28;19916;-77
2023/07/30 12:16:56;;;;;;;;;;;22.60;89.00;;;;;;5074750;28;19919;-80
2023/07/30 12:19:22;;;;;;;;;;;22.60;89.40;;;;;;5074260;28;19908;-73
2023/07/30 12:21:47;;;;;;;;;;;22.60;89.60;;;;;;5073991;28;19961;-74
2023/07/30 12:24:12;;;;;;;;;;;22.60;89.80;;;;;;5106795;28;20333;-75
2023/07/30 12:26:38;;;;;;;;;;;22.60;89.90;;;;;;5073984;28;19985;-74
2023/07/30 12:29:03;;;;;;;;;;;22.60;89.90;;;;;;5073742;28;19909;-73
2023/07/30 12:31:29;;;;;;;;;;;22.60;89.90;;;;;;5073919;28;19909;-73
2023/07/30 12:33:55;;;;;;;;;;;22.60;90.00;;;;;;5073971;28;19915;-73
2023/07/30 12:36:20;;;;;;;;;;;22.60;90.00;;;;;;5074083;28;19908;-74
2023/07/30 12:38:46;;;;;;;;;;;22.60;90.00;;;;;;5073737;28;20282;-74
2023/07/30 12:41:11;;;;;;;;;;;22.60;90.00;;;;;;5073859;28;19916;-74
2023/07/30 12:43:37;;;;;;;;;;;22.60;90.00;;;;;;5073526;28;20352;-71
2023/07/30 12:46:02;;;;;;;;;;;22.60;90.00;;;;;;5073920;28;19924;-75
2023/07/30 12:48:30;;;;;;;;;;;22.60;90.00;;;;;;5073058;28;20183;-75
2023/07/30 12:50:55;;;;;;;;;;;22.60;90.00;;;;;;5073896;28;19908;-72
2023/07/30 12:53:21;;;;;;;;;;;22.60;90.00;;;;;;5074145;28;19909;-74
2023/07/30 12:55:46;;;;;;;;;;;22.60;90.00;;;;;;5073746;28;19909;-72
2023/07/30 12:58:12;;;;;;;;;;;22.60;90.00;;;;;;5073886;28;19909;-71
2023/07/30 13:00:37;;;;;;;;;;;22.60;90.00;;;;;;5073597;28;19936;-73
2023/07/30 13:03:03;;;;;;;;;;;22.60;90.00;;;;;;5073811;28;19920;-75
2023/07/30 13:05:28;;;;;;;;;;;22.60;90.00;;;;;;5073653;28;20366;-73
2023/07/30 13:07:54;;;;;;;;;;;22.60;90.00;;;;;;5073380;28;19935;-75
2023/07/30 13:10:19;;;;;;;;;;;22.60;90.00;;;;;;5073736;28;20367;-75
2023/07/30 13:12:45;;;;;;;;;;;22.60;90.00;;;;;;5073817;28;19991;-76
2023/07/30 13:15:10;;;;;;;;;;;22.60;90.00;;;;;;5073302;28;20378;-73
2023/07/30 13:17:37;;;;;;;;;;;22.60;90.00;;;;;;5073704;28;19913;-73
2023/07/30 13:20:02;;;;;;;;;;;22.60;90.00;;;;;;5073422;28;19909;-75
2023/07/30 13:22:28;;;;;;;;;;;22.60;90.00;;;;;;5073903;28;19915;-74
2023/07/30 13:24:53;;;;;;;;;;;22.60;90.00;;;;;;5073424;28;19962;-75
2023/07/30 13:27:19;;;;;;;;;;;22.60;90.00;;;;;;5073474;28;19978;-74
2023/07/30 13:29:45;;;;;;;;;;;22.60;90.00;;;;;;5073232;28;19912;-75
2023/07/30 13:32:10;;;;;;;;;;;22.60;89.90;;;;;;5073416;28;19995;-75
2023/07/30 13:34:35;;;;;;;;;;;22.60;90.00;;;;;;5073240;28;20314;-74
2023/07/30 13:37:01;;;;;;;;;;;22.60;89.90;;;;;;5073241;28;20026;-74
2023/07/30 13:39:27;;;;;;;;;;;22.60;89.90;;;;;;5074509;28;19915;-74
2023/07/30 13:41:53;;;;;;;;;;;22.60;89.90;;;;;;5077258;28;19940;-73
2023/07/30 13:44:19;;;;;;;;;;;22.60;89.90;;;;;;5076802;28;20026;-73
2023/07/30 13:46:44;;;;;;;;;;;22.60;89.90;;;;;;5076989;28;19923;-74
2023/07/30 13:49:10;;;;;;;;;;;22.60;89.90;;;;;;5077142;28;19920;-73
2023/07/30 13:51:35;;;;;;;;;;;22.60;89.90;;;;;;5076868;28;19915;-74
2023/07/30 13:54:01;;;;;;;;;;;22.60;89.90;;;;;;5076730;28;19908;-74
2023/07/30 13:56:27;;;;;;;;;;;22.60;89.80;;;;;;5076954;28;19908;-74
2023/07/30 13:58:52;;;;;;;;;;;22.60;89.80;;;;;;5076851;28;19969;-73
2023/07/30 14:01:18;;;;;;;;;;;22.60;89.80;;;;;;5077091;28;19912;-74
2023/07/30 14:03:43;;;;;;;;;;;22.60;89.80;;;;;;5076738;28;19995;-72
2023/07/30 14:06:09;;;;;;;;;;;22.60;89.80;;;;;;5076634;28;19974;-70
2023/07/30 14:08:34;;;;;;;;;;;22.60;89.80;;;;;;5076803;28;20003;-73